Time;durP1;ratioP1;P1;durP2;ratioP2;P2;SDS_P1;SDS_P2;PMS_P1;PMS_P2;Temp;Humidity;BMP_temperature;BMP_pressure;BME280_temperature;BME280_humidity;BME280_pressure;Samples;Min_cycle;Max_cycle;Signal;HPM_P1;HPM_P2
2023/03/03 00:02:23;;;;;;;;;;;;;;;6.04;88.65;100011.94;5093620;28;19912;-35
2023/03/03 00:04:49;;;;;;;;;;;;;;;6.01;87.85;99999.06;5093808;28;19961;-36
2023/03/03 00:07:20;;;;;;;;;;;;;;;5.73;89.76;100005.66;5093602;28;19916;-36
2023/03/03 00:09:46;;;;;;;;;;;;;;;5.62;89.72;100005.03;5093584;28;19918;-36
2023/03/03 00:12:19;;;;;;;;;;;;;;;5.73;90.12;100001.22;5093397;28;20075;-35
2023/03/03 00:14:44;;;;;;;;;;;;;;;5.81;90.14;99987.19;5092126;28;19912;-36
2023/03/03 00:17:17;;;;;;;;;;;;;;;5.72;89.13;99996.09;5093114;28;19962;-36
2023/03/03 00:19:46;;;;;;;;;;;;;;;5.61;90.27;99981.41;5093289;28;20072;-37
2023/03/03 00:22:31;;;;;;;;;;;;;;;5.69;90.29;99978.75;5091367;28;19924;-36
2023/03/03 00:25:19;;;;;;;;;;;;;;;5.81;89.91;99974.00;5092371;28;19916;-37
2023/03/03 00:27:45;;;;;;;;;;;;;;;5.99;89.11;99968.53;5093397;28;19960;-36
2023/03/03 00:30:37;;;;;;;;;;;;;;;5.79;88.86;99962.78;5092914;28;20386;-36
2023/03/03 00:33:12;;;;;;;;;;;;;;;5.97;89.55;99954.66;5090804;28;19953;-36
2023/03/03 00:35:38;;;;;;;;;;;;;;;5.77;89.36;99957.66;5092189;28;20307;-36
2023/03/03 00:38:13;;;;;;;;;;;;;;;5.72;89.48;99953.84;5092966;28;19920;-36
2023/03/03 00:40:39;;;;;;;;;;;;;;;5.67;89.49;99947.25;5092843;28;19912;-36
2023/03/03 00:43:24;;;;;;;;;;;;;;;5.62;90.71;99943.47;5092713;28;20291;-37
2023/03/03 00:45:49;;;;;;;;;;;;;;;5.70;89.70;99940.00;5092673;28;19972;-36
2023/03/03 00:48:20;;;;;;;;;;;;;;;5.58;90.24;99942.13;5092489;28;20397;-36
2023/03/03 00:50:46;;;;;;;;;;;;;;;5.69;89.09;99933.88;5092614;28;19976;-36
2023/03/03 00:53:11;;;;;;;;;;;;;;;5.71;88.60;99931.88;5092389;28;20368;-36
2023/03/03 00:55:36;;;;;;;;;;;;;;;5.83;88.54;99935.84;5092803;28;19912;-36
2023/03/03 00:58:03;;;;;;;;;;;;;;;6.13;86.99;99930.88;5092569;28;19912;-35
2023/03/03 01:00:28;;;;;;;;;;;;;;;6.08;86.37;99930.53;5092452;28;20011;-36
2023/03/03 01:02:53;;;;;;;;;;;;;;;6.11;86.95;99924.94;5092405;28;19955;-35
2023/03/03 01:05:18;;;;;;;;;;;;;;;6.07;86.91;99918.31;5092345;28;19994;-36
2023/03/03 01:07:44;;;;;;;;;;;;;;;5.99;86.92;99927.09;5092267;28;19912;-36
2023/03/03 01:10:10;;;;;;;;;;;;;;;6.01;86.26;99914.53;5092494;28;19915;-37
2023/03/03 01:12:37;;;;;;;;;;;;;;;5.70;87.64;99914.41;5092382;28;19919;-37
2023/03/03 01:15:03;;;;;;;;;;;;;;;5.80;88.28;99924.78;5092461;28;19912;-37
2023/03/03 01:17:28;;;;;;;;;;;;;;;5.72;89.09;99922.97;5092169;28;20283;-36
2023/03/03 01:19:53;;;;;;;;;;;;;;;5.61;89.12;99923.31;5092367;28;19919;-37
2023/03/03 01:22:19;;;;;;;;;;;;;;;5.81;88.47;99918.53;5091833;28;19955;-37
2023/03/03 01:24:44;;;;;;;;;;;;;;;5.85;87.83;99920.66;5091931;28;20014;-36
2023/03/03 01:27:10;;;;;;;;;;;;;;;5.72;88.40;99925.63;5091579;28;19920;-37
2023/03/03 01:29:35;;;;;;;;;;;;;;;5.53;89.83;99928.63;5091494;28;19951;-37
2023/03/03 01:32:00;;;;;;;;;;;;;;;5.58;89.38;99918.38;5091929;28;19966;-37
2023/03/03 01:34:25;;;;;;;;;;;;;;;5.80;88.23;99917.69;5090423;28;20657;-36
2023/03/03 01:36:51;;;;;;;;;;;;;;;5.59;88.79;99915.56;5091755;28;19995;-36
2023/03/03 01:39:16;;;;;;;;;;;;;;;5.43;89.83;99911.13;5091771;28;20388;-36
2023/03/03 01:41:41;;;;;;;;;;;;;;;5.29;90.30;99896.81;5091884;28;19916;-36
2023/03/03 01:44:10;;;;;;;;;;;;;;;5.53;90.73;99915.44;5092004;28;19916;-36
2023/03/03 01:46:41;;;;;;;;;;;;;;;5.64;90.26;99915.91;5091547;28;20392;-37
2023/03/03 01:49:11;;;;;;;;;;;;;;;5.79;88.15;99916.06;5091758;28;19947;-36
2023/03/03 01:51:46;;;;;;;;;;;;;;;5.66;88.69;99913.09;5091458;28;19912;-35
2023/03/03 01:54:15;;;;;;;;;;;;;;;5.50;89.81;99911.28;5091636;28;19919;-35
2023/03/03 01:56:41;;;;;;;;;;;;;;;5.70;88.74;99914.41;5091678;28;19919;-37
2023/03/03 01:59:15;;;;;;;;;;;;;;;5.78;89.09;99909.09;5091275;28;19966;-37
2023/03/03 02:01:41;;;;;;;;;;;;;;;5.72;87.98;99909.78;5091365;28;19912;-37
2023/03/03 02:04:06;;;;;;;;;;;;;;;5.84;87.33;99900.50;5091370;28;19912;-37
2023/03/03 02:06:34;;;;;;;;;;;;;;;5.79;88.34;99894.09;5091486;28;20308;-37
2023/03/03 02:09:10;;;;;;;;;;;;;;;5.99;87.42;99902.50;5091503;28;19994;-37
2023/03/03 02:11:36;;;;;;;;;;;;;;;6.03;85.77;99895.88;5091040;28;19912;-37
2023/03/03 02:14:01;;;;;;;;;;;;;;;5.88;85.48;99899.19;5091210;28;19944;-37
2023/03/03 02:16:27;;;;;;;;;;;;;;;5.88;85.71;99898.34;5091048;28;19912;-37
2023/03/03 02:18:52;;;;;;;;;;;;;;;5.87;87.06;99899.34;5091189;28;19920;-37
2023/03/03 02:21:22;;;;;;;;;;;;;;;5.77;86.79;99894.28;5090868;28;20093;-37
2023/03/03 02:23:47;;;;;;;;;;;;;;;5.74;87.04;99899.06;5091226;28;19927;-37
2023/03/03 02:26:19;;;;;;;;;;;;;;;5.69;87.26;99899.53;5091077;28;19920;-37
2023/03/03 02:28:44;;;;;;;;;;;;;;;5.76;87.24;99894.44;5091220;28;19916;-37
2023/03/03 02:31:13;;;;;;;;;;;;;;;5.63;87.94;99890.47;5091220;28;19912;-37
2023/03/03 02:33:42;;;;;;;;;;;;;;;5.68;88.22;99895.28;5091477;28;19940;-37
2023/03/03 02:36:15;;;;;;;;;;;;;;;5.66;88.61;99884.88;5091232;28;19935;-37
2023/03/03 02:38:43;;;;;;;;;;;;;;;5.79;87.40;99889.63;5093786;28;19912;-37
2023/03/03 02:41:23;;;;;;;;;;;;;;;5.77;87.79;99883.72;5095346;28;20356;-37
2023/03/03 02:43:51;;;;;;;;;;;;;;;5.68;87.68;99893.44;5095361;28;20041;-37
2023/03/03 02:46:16;;;;;;;;;;;;;;;5.60;87.93;99885.56;5094762;28;19916;-37
2023/03/03 02:48:42;;;;;;;;;;;;;;;5.70;86.95;99892.47;5094990;28;19919;-37
2023/03/03 02:51:07;;;;;;;;;;;;;;;5.59;88.30;99899.72;5094903;28;19923;-37
2023/03/03 02:53:32;;;;;;;;;;;;;;;5.69;87.82;99894.25;5094955;28;19908;-37
2023/03/03 02:55:57;;;;;;;;;;;;;;;5.77;87.75;99886.34;5094835;28;20103;-37
2023/03/03 02:58:23;;;;;;;;;;;;;;;5.81;88.18;99892.94;5094621;28;20446;-37
2023/03/03 03:00:48;;;;;;;;;;;;;;;5.81;86.21;99892.94;5094797;28;19920;-37
2023/03/03 03:03:13;;;;;;;;;;;;;;;5.83;86.92;99903.34;5094548;28;20328;-37
2023/03/03 03:05:39;;;;;;;;;;;;;;;5.73;86.33;99897.41;5094490;28;19923;-37
2023/03/03 03:08:04;;;;;;;;;;;;;;;5.79;86.75;99892.28;5094627;28;19916;-37
2023/03/03 03:10:29;;;;;;;;;;;;;;;5.71;87.56;99891.47;5094904;28;19912;-37
2023/03/03 03:12:55;;;;;;;;;;;;;;;5.84;86.53;99882.00;5094089;28;19980;-37
2023/03/03 03:15:20;;;;;;;;;;;;;;;5.66;86.98;99889.34;5094653;28;19919;-37
2023/03/03 03:17:45;;;;;;;;;;;;;;;5.51;90.04;99891.00;5094393;28;19948;-35
2023/03/03 03:20:11;;;;;;;;;;;;;;;5.73;88.58;99885.03;5094045;28;19912;-36
2023/03/03 03:22:36;;;;;;;;;;;;;;;5.79;88.41;99883.53;5094266;28;20387;-36
2023/03/03 03:25:01;;;;;;;;;;;;;;;5.78;88.67;99885.34;5094431;28;19962;-36
2023/03/03 03:27:26;;;;;;;;;;;;;;;5.84;88.45;99884.66;5094146;28;20299;-36
2023/03/03 03:29:52;;;;;;;;;;;;;;;6.00;87.66;99883.00;5094288;28;19919;-36
2023/03/03 03:32:17;;;;;;;;;;;;;;;5.84;86.46;99881.19;5094289;28;20265;-36
2023/03/03 03:34:42;;;;;;;;;;;;;;;5.48;88.99;99873.66;5094119;28;19919;-36
2023/03/03 03:37:08;;;;;;;;;;;;;;;5.63;89.56;99887.03;5094378;28;19926;-36
2023/03/03 03:39:34;;;;;;;;;;;;;;;5.70;89.93;99885.38;5093859;28;19912;-35
2023/03/03 03:41:59;;;;;;;;;;;;;;;5.81;89.42;99882.38;5093876;28;19950;-35
2023/03/03 03:44:24;;;;;;;;;;;;;;;6.07;88.19;99879.53;5094038;28;19931;-35
2023/03/03 03:46:50;;;;;;;;;;;;;;;5.82;88.82;99886.63;5093882;28;19951;-35
2023/03/03 03:49:15;;;;;;;;;;;;;;;5.83;88.50;99879.56;5093536;28;20031;-36
2023/03/03 03:51:40;;;;;;;;;;;;;;;5.79;89.95;99888.81;5094705;28;19912;-36
2023/03/03 03:54:06;;;;;;;;;;;;;;;5.87;88.99;99892.25;5093978;28;19947;-36
2023/03/03 03:56:31;;;;;;;;;;;;;;;5.82;88.95;99888.47;5093460;28;20305;-36
2023/03/03 03:58:56;;;;;;;;;;;;;;;5.81;88.65;99882.38;5093677;28;19912;-36
2023/03/03 04:01:22;;;;;;;;;;;;;;;5.68;89.47;99880.25;5093723;28;19912;-36
2023/03/03 04:03:48;;;;;;;;;;;;;;;5.82;89.32;99877.91;5093284;28;20007;-37
2023/03/03 04:06:13;;;;;;;;;;;;;;;5.56;89.54;99876.31;5093588;28;19916;-37
2023/03/03 04:08:39;;;;;;;;;;;;;;;5.42;90.48;99883.09;5093900;28;19920;-36
2023/03/03 04:11:04;;;;;;;;;;;;;;;5.76;89.89;99882.03;5093506;28;19968;-37
2023/03/03 04:13:30;;;;;;;;;;;;;;;5.74;89.51;99881.38;5093437;28;19952;-37
2023/03/03 04:15:56;;;;;;;;;;;;;;;5.77;89.66;99880.22;5093554;28;20236;-36
2023/03/03 04:18:21;;;;;;;;;;;;;;;5.73;90.30;99873.63;5093288;28;19916;-36
2023/03/03 04:20:46;;;;;;;;;;;;;;;5.84;90.20;99874.09;5093315;28;19950;-37
2023/03/03 04:23:12;;;;;;;;;;;;;;;5.64;91.11;99870.19;5093215;28;20015;-37
2023/03/03 04:25:37;;;;;;;;;;;;;;;5.79;90.01;99871.16;5093087;28;19955;-37
2023/03/03 04:28:03;;;;;;;;;;;;;;;6.02;89.11;99873.09;5093446;28;20358;-35
2023/03/03 04:30:28;;;;;;;;;;;;;;;5.87;89.90;99868.47;5093139;28;20320;-36
2023/03/03 04:32:53;;;;;;;;;;;;;;;5.79;90.60;99873.78;5092991;28;19912;-36
2023/03/03 04:35:18;;;;;;;;;;;;;;;5.75;90.82;99871.63;5093084;28;19912;-36
2023/03/03 04:37:44;;;;;;;;;;;;;;;5.81;91.06;99871.81;5092768;28;19966;-36
2023/03/03 04:40:09;;;;;;;;;;;;;;;6.55;88.91;99868.03;5092986;28;19947;-35
2023/03/03 04:42:35;;;;;;;;;;;;;;;6.47;86.84;99874.19;5092763;28;19912;-35
2023/03/03 04:45:00;;;;;;;;;;;;;;;6.12;87.67;99867.59;5093011;28;20339;-36
2023/03/03 04:47:26;;;;;;;;;;;;;;;6.16;87.70;99872.38;5092546;28;20383;-36
2023/03/03 04:49:51;;;;;;;;;;;;;;;5.85;88.20;99867.00;5092714;28;19951;-36
2023/03/03 04:52:16;;;;;;;;;;;;;;;5.91;88.77;99868.97;5092696;28;19919;-36
2023/03/03 04:54:42;;;;;;;;;;;;;;;6.26;89.62;99877.44;5092627;28;19982;-36
2023/03/03 04:57:08;;;;;;;;;;;;;;;6.61;87.59;99873.47;5092557;28;20339;-36
2023/03/03 04:59:34;;;;;;;;;;;;;;;6.32;87.51;99873.28;5092440;28;19963;-36
2023/03/03 05:01:59;;;;;;;;;;;;;;;6.14;88.94;99871.72;5091852;28;20009;-36
2023/03/03 05:04:24;;;;;;;;;;;;;;;6.18;89.17;99880.13;5092631;28;19912;-36
2023/03/03 05:06:49;;;;;;;;;;;;;;;6.13;89.45;99880.66;5092342;28;19963;-36
2023/03/03 05:09:15;;;;;;;;;;;;;;;6.09;89.94;99876.69;5092343;28;19912;-36
2023/03/03 05:11:40;;;;;;;;;;;;;;;6.18;88.48;99883.59;5092214;28;19920;-36
2023/03/03 05:14:07;;;;;;;;;;;;;;;6.03;89.24;99880.84;5092339;28;19912;-37
2023/03/03 05:16:32;;;;;;;;;;;;;;;6.42;88.17;99884.50;5092543;28;19962;-36
2023/03/03 05:18:57;;;;;;;;;;;;;;;6.30;87.83;99891.16;5092324;28;20391;-36
2023/03/03 05:21:22;;;;;;;;;;;;;;;6.06;88.78;99884.97;5092151;28;19920;-36
2023/03/03 05:23:48;;;;;;;;;;;;;;;6.00;88.44;99883.84;5092263;28;20249;-37
2023/03/03 05:26:13;;;;;;;;;;;;;;;5.97;88.29;99883.34;5092437;28;19930;-37
2023/03/03 05:28:39;;;;;;;;;;;;;;;6.11;88.56;99880.00;5092235;28;20386;-35
2023/03/03 05:31:04;;;;;;;;;;;;;;;6.22;88.04;99879.59;5092044;28;19954;-37
2023/03/03 05:33:29;;;;;;;;;;;;;;;6.34;87.33;99887.16;5091724;28;20379;-37
2023/03/03 05:35:55;;;;;;;;;;;;;;;6.35;86.77;99886.16;5091164;28;19915;-36
2023/03/03 05:38:20;;;;;;;;;;;;;;;6.17;87.15;99883.75;5090923;28;20274;-36
2023/03/03 05:40:45;;;;;;;;;;;;;;;6.28;87.22;99885.19;5091235;28;19919;-37
2023/03/03 05:43:11;;;;;;;;;;;;;;;6.10;87.32;99885.44;5091273;28;20361;-36
2023/03/03 05:45:36;;;;;;;;;;;;;;;6.26;86.44;99885.38;5090446;28;19916;-36
2023/03/03 05:48:02;;;;;;;;;;;;;;;6.26;87.14;99886.22;5090095;28;20040;-36
2023/03/03 05:50:28;;;;;;;;;;;;;;;6.26;86.72;99888.88;5089630;28;19993;-36
2023/03/03 05:52:53;;;;;;;;;;;;;;;6.32;86.31;99890.00;5090105;28;19919;-37
2023/03/03 05:55:18;;;;;;;;;;;;;;;6.28;86.42;99898.41;5090000;28;19916;-36
2023/03/03 05:57:44;;;;;;;;;;;;;;;6.38;85.63;99893.78;5090911;28;19977;-36
2023/03/03 06:00:10;;;;;;;;;;;;;;;6.39;85.63;99890.94;5090490;28;19912;-36
2023/03/03 06:02:36;;;;;;;;;;;;;;;6.39;85.99;99890.13;5092312;28;19918;-36
2023/03/03 06:05:01;;;;;;;;;;;;;;;6.44;84.81;99893.06;5103260;28;19994;-37
2023/03/03 06:07:26;;;;;;;;;;;;;;;6.39;84.42;99892.75;5097212;28;20007;-36
2023/03/03 06:09:51;;;;;;;;;;;;;;;6.46;84.69;99896.38;5103187;28;19916;-37
2023/03/03 06:12:17;;;;;;;;;;;;;;;6.34;85.86;99903.84;5105880;28;19911;-36
2023/03/03 06:14:42;;;;;;;;;;;;;;;6.43;85.62;99899.34;5104335;28;19951;-37
2023/03/03 06:17:07;;;;;;;;;;;;;;;6.74;83.61;99909.94;5097188;28;19951;-36
2023/03/03 06:19:33;;;;;;;;;;;;;;;6.33;84.10;99882.88;5100533;28;20333;-36
2023/03/03 06:21:58;;;;;;;;;;;;;;;6.68;82.18;99907.97;5089982;28;19928;-36
2023/03/03 06:24:25;;;;;;;;;;;;;;;7.65;84.38;99910.03;5090521;28;19916;-36
2023/03/03 06:26:51;;;;;;;;;;;;;;;8.48;82.58;99910.00;5090947;28;19916;-36
2023/03/03 06:29:16;;;;;;;;;;;;;;;9.75;72.58;99910.19;5090585;28;19912;-36
2023/03/03 06:31:42;;;;;;;;;;;;;;;8.25;73.98;99912.75;5090818;28;19919;-36
2023/03/03 06:34:07;;;;;;;;;;;;;;;8.14;75.63;99909.53;5090433;28;19912;-36
2023/03/03 06:36:32;;;;;;;;;;;;;;;7.87;77.96;99915.47;5108341;28;19919;-35
2023/03/03 06:38:58;;;;;;;;;;;;;;;7.67;82.74;99920.47;5110657;28;20020;-35
2023/03/03 06:41:23;;;;;;;;;;;;;;;8.55;83.36;99916.22;5111344;28;20409;-36
2023/03/03 06:43:48;;;;;;;;;;;;;;;8.16;78.31;99912.81;5111132;28;19923;-36
2023/03/03 06:46:14;;;;;;;;;;;;;;;7.29;78.97;99913.38;5110851;28;20358;-36
2023/03/03 06:48:39;;;;;;;;;;;;;;;7.47;79.20;99913.03;5110825;28;19912;-36
2023/03/03 06:51:13;;;;;;;;;;;;;;;7.27;79.38;99915.34;5110673;28;19972;-36
2023/03/03 06:53:39;;;;;;;;;;;;;;;7.06;80.13;99910.69;5109536;28;19981;-36
2023/03/03 06:56:07;;;;;;;;;;;;;;;7.13;80.84;99909.00;5110988;28;20324;-36
2023/03/03 06:58:34;;;;;;;;;;;;;;;7.19;80.13;99915.41;5111106;28;19919;-36
2023/03/03 07:01:00;;;;;;;;;;;;;;;7.59;85.87;99918.72;5098283;28;20276;-36
2023/03/03 07:03:28;;;;;;;;;;;;;;;7.66;81.14;99917.00;5090128;28;19981;-36
2023/03/03 07:05:54;;;;;;;;;;;;;;;8.96;83.85;99913.78;5084764;28;19999;-36
2023/03/03 07:08:21;;;;;;;;;;;;;;;9.27;79.06;99912.69;5090174;28;19998;-37
2023/03/03 07:10:46;;;;;;;;;;;;;;;8.97;71.21;99915.44;5090507;28;19991;-36
2023/03/03 07:13:22;;;;;;;;;;;;;;;8.95;71.07;99909.50;5089831;28;19923;-36
2023/03/03 07:15:48;;;;;;;;;;;;;;;8.80;72.01;99916.69;5090090;28;20063;-42
2023/03/03 07:18:23;;;;;;;;;;;;;;;8.82;72.52;99913.88;5090455;28;19913;-36
2023/03/03 07:20:48;;;;;;;;;;;;;;;8.66;71.69;99909.59;5090203;28;19919;-37
2023/03/03 07:23:13;;;;;;;;;;;;;;;8.61;73.31;99913.63;5089826;28;20085;-37
2023/03/03 07:25:38;;;;;;;;;;;;;;;8.16;73.46;99910.16;5093761;28;19920;-36
2023/03/03 07:28:16;;;;;;;;;;;;;;;8.09;74.05;99917.22;5093294;28;20364;-35
2023/03/03 07:30:41;;;;;;;;;;;;;;;8.37;72.83;99911.25;5093905;28;19912;-36
2023/03/03 07:33:13;;;;;;;;;;;;;;;8.29;75.80;99916.69;5093716;28;19912;-36
2023/03/03 07:35:42;;;;;;;;;;;;;;;8.05;74.71;99907.97;5093843;28;19916;-35
2023/03/03 07:38:22;;;;;;;;;;;;;;;8.13;72.33;99907.06;5092984;28;19920;-36
2023/03/03 07:40:58;;;;;;;;;;;;;;;7.76;73.93;99914.09;5093089;28;19912;-36
2023/03/03 07:43:29;;;;;;;;;;;;;;;7.54;77.04;99899.88;5092845;28;19912;-37
2023/03/03 07:46:09;;;;;;;;;;;;;;;7.58;76.48;99901.19;5092650;28;19924;-37
2023/03/03 07:48:36;;;;;;;;;;;;;;;7.74;74.72;99908.97;5092777;28;19912;-37
2023/03/03 07:51:04;;;;;;;;;;;;;;;7.73;75.31;99902.03;5093161;28;19912;-35
2023/03/03 07:53:33;;;;;;;;;;;;;;;8.31;72.63;99912.00;5093689;28;19916;-36
2023/03/03 07:55:59;;;;;;;;;;;;;;;9.03;69.75;99907.75;5092793;28;19916;-35
2023/03/03 07:58:34;;;;;;;;;;;;;;;8.88;69.07;99900.66;5093475;28;19989;-36
2023/03/03 08:01:18;;;;;;;;;;;;;;;9.29;67.52;99905.34;5092272;28;20443;-42
2023/03/03 08:03:48;;;;;;;;;;;;;;;8.70;69.16;99905.56;5092331;28;20371;-41
2023/03/03 08:06:32;;;;;;;;;;;;;;;7.98;72.47;99899.13;5091972;28;19997;-41
2023/03/03 08:09:01;;;;;;;;;;;;;;;8.62;70.03;99898.53;5092011;28;20119;-42
2023/03/03 08:11:26;;;;;;;;;;;;;;;9.05;67.98;99895.94;5092448;28;19912;-42
2023/03/03 08:13:52;;;;;;;;;;;;;;;8.36;70.32;99880.47;5092851;28;19919;-41
2023/03/03 08:16:23;;;;;;;;;;;;;;;8.02;72.76;99884.50;5092856;28;19912;-42
2023/03/03 08:18:50;;;;;;;;;;;;;;;8.52;71.93;99885.56;5092930;28;19912;-43
2023/03/03 08:21:15;;;;;;;;;;;;;;;8.19;72.01;99877.19;5092589;28;19966;-42
2023/03/03 08:23:41;;;;;;;;;;;;;;;7.98;73.53;99880.59;5092917;28;20403;-41
2023/03/03 08:26:06;;;;;;;;;;;;;;;8.07;72.95;99884.75;5092595;28;19927;-41
2023/03/03 08:28:32;;;;;;;;;;;;;;;8.38;71.84;99883.75;5093087;28;19999;-41
2023/03/03 08:30:57;;;;;;;;;;;;;;;8.42;71.23;99871.78;5092853;28;19912;-42
2023/03/03 08:33:22;;;;;;;;;;;;;;;8.25;72.15;99876.44;5092589;28;19912;-42
2023/03/03 08:35:48;;;;;;;;;;;;;;;8.00;74.32;99878.56;5091107;28;19930;-42
2023/03/03 08:38:15;;;;;;;;;;;;;;;8.51;72.72;99865.38;5092126;28;19912;-42
2023/03/03 08:40:40;;;;;;;;;;;;;;;9.14;69.70;99860.28;5092099;28;19916;-43
2023/03/03 08:43:06;;;;;;;;;;;;;;;8.86;70.87;99865.53;5092134;28;19972;-42
2023/03/03 08:45:31;;;;;;;;;;;;;;;8.53;72.67;99863.34;5092167;28;19919;-42
2023/03/03 08:47:58;;;;;;;;;;;;;;;8.76;71.50;99855.22;5091987;28;19924;-43
2023/03/03 08:50:24;;;;;;;;;;;;;;;9.50;68.23;99856.69;5092210;28;19919;-43
2023/03/03 08:52:49;;;;;;;;;;;;;;;8.85;69.01;99855.91;5091631;28;19916;-42
2023/03/03 08:55:14;;;;;;;;;;;;;;;8.16;72.53;99865.09;5091869;28;20302;-42
2023/03/03 08:57:40;;;;;;;;;;;;;;;8.15;72.77;99867.97;5091817;28;19912;-43
2023/03/03 09:00:06;;;;;;;;;;;;;;;9.04;70.52;99861.59;5092079;28;20367;-44
2023/03/03 09:02:32;;;;;;;;;;;;;;;8.33;72.03;99862.25;5091914;28;19912;-45
2023/03/03 09:04:57;;;;;;;;;;;;;;;8.46;72.44;99865.09;5091626;28;19916;-45
2023/03/03 09:07:22;;;;;;;;;;;;;;;8.37;73.75;99863.53;5091694;28;19974;-45
2023/03/03 09:09:48;;;;;;;;;;;;;;;8.67;73.24;99863.50;5091784;28;19912;-43
2023/03/03 09:12:17;;;;;;;;;;;;;;;8.64;72.13;99856.72;5091492;28;20414;-43
2023/03/03 09:14:43;;;;;;;;;;;;;;;8.75;72.86;99864.19;5090959;28;19915;-43
2023/03/03 09:17:37;;;;;;;;;;;;;;;8.64;73.08;99856.72;5091353;28;19922;-44
2023/03/03 09:20:21;;;;;;;;;;;;;;;8.73;72.58;99854.78;5082347;28;19916;-44
2023/03/03 09:22:48;;;;;;;;;;;;;;;8.90;72.78;99855.34;5091207;28;19924;-43
2023/03/03 09:25:23;;;;;;;;;;;;;;;8.79;72.64;99857.47;5091372;28;19920;-41
2023/03/03 09:27:51;;;;;;;;;;;;;;;8.46;73.70;99854.50;5091286;28;19997;-44
2023/03/03 09:30:25;;;;;;;;;;;;;;;8.23;74.88;99844.81;5091376;28;19951;-43
2023/03/03 09:32:51;;;;;;;;;;;;;;;8.53;72.89;99846.59;5091316;28;19944;-43
2023/03/03 09:35:36;;;;;;;;;;;;;;;8.61;72.12;99844.66;5090779;28;19919;-44
2023/03/03 09:38:14;;;;;;;;;;;;;;;8.63;72.14;99830.41;5090962;28;20053;-44
2023/03/03 09:40:52;;;;;;;;;;;;;;;8.99;72.22;99836.44;5091206;28;19916;-43
2023/03/03 09:43:36;;;;;;;;;;;;;;;9.52;70.33;99843.19;5090646;28;19912;-47
2023/03/03 09:46:18;;;;;;;;;;;;;;;9.46;71.31;99841.31;5090688;28;20245;-42
2023/03/03 09:48:50;;;;;;;;;;;;;;;10.08;69.59;99840.44;5090855;28;19981;-43
2023/03/03 09:51:41;;;;;;;;;;;;;;;9.32;69.24;99830.59;5090482;28;19916;-42
2023/03/03 09:54:25;;;;;;;;;;;;;;;9.25;72.43;99832.34;5074041;28;20011;-42
2023/03/03 09:56:55;;;;;;;;;;;;;;;9.43;69.26;99829.25;5090551;28;19973;-44
2023/03/03 09:59:24;;;;;;;;;;;;;;;8.80;70.89;99829.94;5090814;28;20406;-43
2023/03/03 10:01:56;;;;;;;;;;;;;;;9.27;68.70;99827.69;5090416;28;20375;-43
2023/03/03 10:04:21;;;;;;;;;;;;;;;8.55;69.07;99832.16;5088485;28;20083;-42
2023/03/03 10:06:52;;;;;;;;;;;;;;;8.67;69.48;99829.81;5090705;28;19920;-42
2023/03/03 10:09:36;;;;;;;;;;;;;;;9.54;67.07;99825.22;5090798;28;20014;-43
2023/03/03 10:12:11;;;;;;;;;;;;;;;9.13;68.39;99829.41;5090586;28;19939;-36
2023/03/03 10:14:36;;;;;;;;;;;;;;;8.91;67.45;99835.75;5088037;28;19912;-35
2023/03/03 10:17:01;;;;;;;;;;;;;;;8.90;69.03;99832.28;5089981;28;19916;-36
2023/03/03 10:19:33;;;;;;;;;;;;;;;8.92;68.36;99835.56;5090433;28;19919;-36
2023/03/03 10:22:11;;;;;;;;;;;;;;;9.44;67.45;99819.44;5089897;28;19927;-36
2023/03/03 10:24:42;;;;;;;;;;;;;;;9.63;66.89;99823.22;5089078;28;20003;-35
2023/03/03 10:27:26;;;;;;;;;;;;;;;8.98;70.24;99812.75;5087809;28;19916;-36
2023/03/03 10:30:00;;;;;;;;;;;;;;;9.14;71.39;99820.44;5088168;28;20029;-37
2023/03/03 10:32:40;;;;;;;;;;;;;;;9.45;70.61;99816.59;5089975;28;20391;-36
2023/03/03 10:35:14;;;;;;;;;;;;;;;9.63;72.01;99809.94;5089897;28;20038;-35
2023/03/03 10:37:39;;;;;;;;;;;;;;;9.18;73.58;99812.91;5089970;28;19916;-36
2023/03/03 10:40:05;;;;;;;;;;;;;;;9.00;72.49;99805.41;5090933;28;19919;-36
2023/03/03 10:42:49;;;;;;;;;;;;;;;8.88;75.05;99809.59;5090528;28;19991;-36
2023/03/03 10:45:17;;;;;;;;;;;;;;;9.64;70.91;99804.44;5089221;28;19912;-41
2023/03/03 10:48:01;;;;;;;;;;;;;;;9.67;69.89;99806.72;5090552;28;20010;-43
2023/03/03 10:50:33;;;;;;;;;;;;;;;9.25;71.41;99800.50;5087552;28;19943;-42
2023/03/03 10:53:17;;;;;;;;;;;;;;;8.95;73.43;99789.25;5090368;28;19912;-41
2023/03/03 10:55:42;;;;;;;;;;;;;;;9.47;70.57;99787.16;5089837;28;19927;-41
2023/03/03 10:58:16;;;;;;;;;;;;;;;9.63;69.50;99789.50;5090416;28;19912;-43
2023/03/03 11:00:57;;;;;;;;;;;;;;;8.89;73.12;99782.03;5094398;28;19920;-42
2023/03/03 11:03:41;;;;;;;;;;;;;;;9.20;72.75;99779.03;5094345;28;20035;-42
2023/03/03 11:06:12;;;;;;;;;;;;;;;9.86;69.80;99772.44;5094249;28;19942;-41
2023/03/03 11:08:45;;;;;;;;;;;;;;;9.56;69.81;99770.88;5094532;28;19912;-42
2023/03/03 11:11:33;;;;;;;;;;;;;;;9.38;69.90;99775.88;5094988;28;20356;-42
2023/03/03 11:14:25;;;;;;;;;;;;;;;9.88;69.51;99765.09;5094207;28;19912;-42
2023/03/03 11:17:02;;;;;;;;;;;;;;;9.95;68.88;99761.44;5092787;28;20095;-43
2023/03/03 11:19:43;;;;;;;;;;;;;;;9.64;69.75;99766.44;5094226;28;19912;-42
2023/03/03 11:22:14;;;;;;;;;;;;;;;9.20;69.02;99758.59;5093788;28;19920;-41
2023/03/03 11:24:45;;;;;;;;;;;;;;;9.68;69.70;99762.34;5094263;28;19916;-42
2023/03/03 11:27:16;;;;;;;;;;;;;;;9.97;68.87;99759.41;5093473;28;20291;-41
2023/03/03 11:30:01;;;;;;;;;;;;;;;9.82;68.84;99760.56;5093971;28;19964;-41
2023/03/03 11:32:39;;;;;;;;;;;;;;;9.76;69.91;99759.53;5091750;28;20356;-42
2023/03/03 11:35:22;;;;;;;;;;;;;;;9.88;68.82;99754.44;5094239;28;19916;-42
2023/03/03 11:38:00;;;;;;;;;;;;;;;10.41;66.55;99751.97;5093363;28;19916;-42
2023/03/03 11:40:35;;;;;;;;;;;;;;;9.91;67.94;99748.75;5092589;28;19935;-43
2023/03/03 11:43:06;;;;;;;;;;;;;;;9.81;66.98;99750.97;5092940;28;19916;-42
2023/03/03 11:45:37;;;;;;;;;;;;;;;10.44;66.67;99746.25;5090353;28;19912;-42
2023/03/03 11:48:21;;;;;;;;;;;;;;;10.61;66.29;99736.06;5093045;28;20015;-42
2023/03/03 11:50:55;;;;;;;;;;;;;;;10.34;66.69;99736.03;5092706;28;19919;-42
2023/03/03 11:53:23;;;;;;;;;;;;;;;10.15;66.41;99728.78;5092762;28;19916;-42
2023/03/03 11:55:53;;;;;;;;;;;;;;;10.53;65.82;99726.44;5092867;28;19919;-44
2023/03/03 11:58:22;;;;;;;;;;;;;;;10.62;64.08;99721.72;5093127;28;19907;-42
2023/03/03 12:01:11;;;;;;;;;;;;;;;10.34;65.88;99717.41;5092689;28;20443;-41
2023/03/03 12:03:52;;;;;;;;;;;;;;;10.24;65.99;99726.75;5087524;28;19919;-41
2023/03/03 12:06:37;;;;;;;;;;;;;;;10.89;64.53;99725.22;5092466;28;19917;-42
2023/03/03 12:09:32;;;;;;;;;;;;;;;10.17;65.38;99716.94;5092557;28;20068;-44
2023/03/03 12:12:10;;;;;;;;;;;;;;;9.95;66.89;99718.91;5054674;28;19917;-41
2023/03/03 12:14:38;;;;;;;;;;;;;;;10.51;65.30;99709.03;5092270;28;19912;-42
2023/03/03 12:17:36;;;;;;;;;;;;;;;10.88;63.11;99707.59;5092215;28;19912;-42
2023/03/03 12:20:20;;;;;;;;;;;;;;;10.41;64.52;99714.72;5068630;28;19912;-41
2023/03/03 12:22:45;;;;;;;;;;;;;;;10.23;65.01;99707.31;5092400;28;19932;-42
2023/03/03 12:25:19;;;;;;;;;;;;;;;9.74;65.48;99705.75;5092234;28;19912;-42
2023/03/03 12:27:51;;;;;;;;;;;;;;;9.88;67.18;99704.78;5092352;28;20019;-41
2023/03/03 12:30:25;;;;;;;;;;;;;;;9.97;67.48;99698.25;5092470;28;20303;-41
2023/03/03 12:32:55;;;;;;;;;;;;;;;9.82;67.55;99702.91;5092426;28;19918;-42
2023/03/03 12:35:35;;;;;;;;;;;;;;;9.98;66.49;99702.56;5092386;28;20332;-41
2023/03/03 12:38:19;;;;;;;;;;;;;;;9.86;67.05;99709.50;5092507;28;20424;-42
2023/03/03 12:40:56;;;;;;;;;;;;;;;9.58;67.91;99702.41;5092448;28;19969;-42
2023/03/03 12:43:22;;;;;;;;;;;;;;;9.91;66.64;99707.03;5092259;28;20276;-42
2023/03/03 12:46:13;;;;;;;;;;;;;;;9.87;66.96;99712.97;5091950;28;19919;-42
2023/03/03 12:48:43;;;;;;;;;;;;;;;9.47;67.65;99708.28;5083297;28;19918;-42
2023/03/03 12:51:08;;;;;;;;;;;;;;;9.60;67.68;99704.88;5092117;28;19977;-43
2023/03/03 12:53:56;;;;;;;;;;;;;;;9.47;68.10;99704.81;5091882;28;20364;-42
2023/03/03 12:56:40;;;;;;;;;;;;;;;9.68;67.45;99698.59;5091651;28;19919;-42
2023/03/03 12:59:13;;;;;;;;;;;;;;;9.66;68.23;99700.63;5091941;28;19912;-41
2023/03/03 13:01:54;;;;;;;;;;;;;;;9.64;67.87;99697.34;5099972;28;20011;-41
2023/03/03 13:04:25;;;;;;;;;;;;;;;9.74;67.79;99693.28;5088771;28;19916;-42
2023/03/03 13:06:58;;;;;;;;;;;;;;;9.57;67.56;99692.78;5091230;28;20292;-42
2023/03/03 13:09:33;;;;;;;;;;;;;;;9.76;66.80;99693.91;5091889;28;19950;-42